Time;durP1;ratioP1;P1;durP2;ratioP2;P2;SDS_P1;SDS_P2;PMS_P1;PMS_P2;Temp;Humidity;BMP_temperature;BMP_pressure;BME280_temperature;BME280_humidity;BME280_pressure;Samples;Min_cycle;Max_cycle;Signal;HPM_P1;HPM_P2
2022/05/22 00:01:39;;;;;;;;;8.00;7.00;;;;;22.16;45.14;100987.22;4973968;28;45552;-61
2022/05/22 00:04:04;;;;;;;;;6.00;5.50;;;;;22.08;45.35;100986.97;4973210;28;45780;-62
2022/05/22 00:06:30;;;;;;;;;5.00;5.00;;;;;22.01;45.50;100973.22;4973492;28;45552;-61
2022/05/22 00:08:55;;;;;;;;;7.00;7.00;;;;;22.04;45.66;100984.53;4973230;28;45471;-61
2022/05/22 00:11:22;;;;;;;;;7.25;6.00;;;;;22.04;45.61;100986.38;4973713;28;45469;-61
2022/05/22 00:13:47;;;;;;;;;5.25;5.25;;;;;22.00;45.84;100983.09;4973407;28;45551;-61
2022/05/22 00:18:56;;;;;;;;;6.00;5.25;;;;;21.97;45.67;100988.66;4973972;28;45459;-61
2022/05/22 00:21:22;;;;;;;;;5.25;5.25;;;;;21.95;46.05;100995.97;4974159;28;45472;-61
2022/05/22 00:23:47;;;;;;;;;4.00;4.00;;;;;21.94;45.88;100980.84;4973549;28;45483;-62
2022/05/22 00:26:12;;;;;;;;;5.00;5.00;;;;;21.93;46.16;100975.63;4973297;28;45926;-62
2022/05/22 00:28:38;;;;;;;;;5.25;5.25;;;;;21.93;45.62;100972.97;4973173;28;56052;-61
2022/05/22 00:31:03;;;;;;;;;6.00;6.00;;;;;21.91;45.80;100961.50;4976791;28;45515;-61
2022/05/22 00:33:28;;;;;;;;;7.25;7.25;;;;;21.90;45.90;100971.38;4977421;28;45505;-61
2022/05/22 00:35:54;;;;;;;;;6.00;6.00;;;;;21.87;45.67;100968.94;4976742;28;46001;-62
2022/05/22 00:38:20;;;;;;;;;4.00;4.00;;;;;21.85;45.74;100970.88;4976944;28;45524;-61
2022/05/22 00:40:45;;;;;;;;;4.50;4.50;;;;;21.84;46.00;100963.78;4976811;28;46038;-61
2022/05/22 00:43:30;;;;;;;;;4.50;4.50;;;;;21.82;46.13;100968.44;4977000;28;45474;-62
2022/05/22 00:45:57;;;;;;;;;8.25;6.50;;;;;21.80;46.10;100965.84;4976317;28;45557;-62
2022/05/22 00:48:23;;;;;;;;;5.00;5.00;;;;;21.79;46.07;100958.81;4977023;28;45579;-62
2022/05/22 00:50:51;;;;;;;;;6.00;6.00;;;;;21.81;46.63;100947.97;4977108;28;45518;-61
2022/05/22 00:53:18;;;;;;;;;5.25;3.50;;;;;21.82;45.98;100947.00;4977033;28;45602;-62
2022/05/22 00:55:44;;;;;;;;;6.25;6.25;;;;;21.81;46.07;100947.97;4975921;28;46178;-61
2022/05/22 00:58:16;;;;;;;;;5.50;5.50;;;;;21.78;45.94;100946.38;4975699;28;45532;-62
2022/05/22 01:00:42;;;;;;;;;4.50;3.00;;;;;21.78;46.03;100941.00;4977061;28;45558;-62
2022/05/22 01:03:29;;;;;;;;;6.75;5.50;;;;;21.78;46.35;100932.13;4976884;28;45511;-62
2022/05/22 01:05:59;;;;;;;;;6.00;5.00;;;;;21.76;46.27;100926.91;4976302;28;46268;-61
2022/05/22 01:08:24;;;;;;;;;4.50;4.50;;;;;21.74;46.52;100923.50;4976314;28;45556;-62
2022/05/22 01:11:00;;;;;;;;;6.25;6.25;;;;;21.73;46.42;100932.47;4976809;28;45493;-62
2022/05/22 01:13:32;;;;;;;;;5.25;4.50;;;;;21.72;46.31;100916.56;4976644;28;45473;-62
2022/05/22 01:15:59;;;;;;;;;4.25;4.25;;;;;21.66;46.43;100912.53;4991627;28;47505;-61
2022/05/22 01:18:27;;;;;;;;;6.25;5.25;;;;;21.64;46.45;100910.94;4975904;28;45526;-62
2022/05/22 01:20:53;;;;;;;;;4.75;4.75;;;;;21.66;46.64;100904.50;4976631;28;45519;-62
2022/05/22 01:23:20;;;;;;;;;3.75;3.75;;;;;21.64;46.66;100911.78;4976067;28;45502;-62
2022/05/22 01:25:46;;;;;;;;;5.50;4.75;;;;;21.63;46.65;100910.09;4976095;28;45384;-61
2022/05/22 01:28:15;;;;;;;;;5.00;5.00;;;;;21.60;46.97;100913.84;4976040;28;45457;-62
2022/05/22 01:30:40;;;;;;;;;6.00;6.00;;;;;21.63;46.67;100912.78;4976331;28;45509;-62
2022/05/22 01:33:06;;;;;;;;;5.00;4.75;;;;;21.62;46.55;100911.03;4976535;28;45518;-62
2022/05/22 01:35:32;;;;;;;;;7.00;7.00;;;;;21.62;46.61;100905.69;4975828;28;45497;-61
2022/05/22 01:37:58;;;;;;;;;5.75;4.50;;;;;21.61;46.80;100912.03;4975924;28;45492;-61
2022/05/22 01:40:24;;;;;;;;;5.75;5.00;;;;;21.57;46.54;100903.38;4975995;28;45489;-62
2022/05/22 01:42:50;;;;;;;;;5.50;4.75;;;;;21.54;46.56;100895.56;4975483;28;45425;-62
2022/05/22 01:45:19;;;;;;;;;6.25;4.25;;;;;21.53;46.48;100903.72;4975033;28;46287;-62
2022/05/22 01:47:45;;;;;;;;;5.50;4.00;;;;;21.50;46.58;100901.28;4975145;28;45501;-62
2022/05/22 01:50:12;;;;;;;;;5.25;5.25;;;;;21.49;46.76;100907.59;4975946;28;45464;-61
2022/05/22 01:52:39;;;;;;;;;4.75;4.75;;;;;21.47;46.62;100907.75;4974856;28;45541;-62
2022/05/22 01:55:06;;;;;;;;;5.67;4.67;;;;;21.45;46.56;100903.47;4974941;28;45465;-61
2022/05/22 01:57:31;;;;;;;;;5.00;5.00;;;;;21.39;46.68;100894.94;4974706;28;45575;-61
2022/05/22 01:59:57;;;;;;;;;6.25;5.25;;;;;21.37;46.44;100893.31;4971981;28;45730;-61
2022/05/22 02:02:23;;;;;;;;;7.75;7.75;;;;;21.40;46.52;100893.94;4976169;28;45604;-61
2022/05/22 02:04:48;;;;;;;;;7.25;6.00;;;;;21.40;46.34;100890.44;4975750;28;45487;-61
2022/05/22 02:09:57;;;;;;;;;6.00;6.00;;;;;21.32;46.67;100890.13;4975248;28;45541;-63
2022/05/22 02:12:23;;;;;;;;;4.50;4.50;;;;;21.30;46.61;100897.41;4975782;28;45481;-62
2022/05/22 02:14:48;;;;;;;;;5.75;5.75;;;;;21.28;46.81;100899.34;4975680;28;46041;-61
2022/05/22 02:17:13;;;;;;;;;3.25;3.25;;;;;21.25;46.42;100892.44;4975493;28;45471;-62
2022/05/22 02:19:39;;;;;;;;;5.00;5.00;;;;;21.22;46.80;100889.97;4973592;28;45452;-61
2022/05/22 02:22:04;;;;;;;;;5.25;5.25;;;;;21.25;46.92;100900.47;4974423;28;47869;-62
2022/05/22 02:24:29;;;;;;;;;6.00;5.75;;;;;21.25;46.50;100899.56;4975631;28;45466;-62
2022/05/22 02:26:55;;;;;;;;;7.00;6.25;;;;;21.24;46.52;100893.38;4975577;28;46115;-62
2022/05/22 02:29:21;;;;;;;;;5.25;4.25;;;;;21.20;46.50;100891.91;4975668;28;45417;-62
2022/05/22 02:31:46;;;;;;;;;5.00;5.00;;;;;21.20;46.51;100889.25;4975035;28;45503;-62
2022/05/22 02:34:12;;;;;;;;;6.50;5.50;;;;;21.20;46.72;100889.25;4975322;28;45494;-62
2022/05/22 02:36:37;;;;;;;;;4.00;4.00;;;;;21.15;46.61;100883.38;4975401;28;45539;-62
2022/05/22 02:39:03;;;;;;;;;7.00;5.75;;;;;21.15;46.47;100892.25;4975449;28;45572;-61
2022/05/22 02:41:28;;;;;;;;;5.00;5.00;;;;;21.13;46.31;100890.66;4975390;28;45585;-62
2022/05/22 02:43:53;;;;;;;;;4.00;4.00;;;;;21.10;46.46;100896.25;4974190;28;46232;-62
2022/05/22 02:46:21;;;;;;;;;4.00;4.00;;;;;21.09;46.51;100910.56;4989160;28;45457;-62
2022/05/22 02:48:46;;;;;;;;;8.00;5.00;;;;;21.07;46.63;100921.41;4975227;28;45589;-62
2022/05/22 02:51:15;;;;;;;;;6.00;6.00;;;;;21.05;46.58;100919.81;4975238;28;45681;-61
2022/05/22 02:53:41;;;;;;;;;6.50;6.50;;;;;21.06;46.53;100921.50;4974135;28;45489;-61
2022/05/22 02:56:12;;;;;;;;;5.25;5.25;;;;;21.02;46.75;100915.53;4973887;28;45532;-62
2022/05/22 02:58:37;;;;;;;;;4.00;4.00;;;;;21.01;46.67;100912.97;4971264;28;45635;-61
2022/05/22 03:01:03;;;;;;;;;6.50;6.25;;;;;21.05;46.68;100925.16;4974927;28;45559;-61
2022/05/22 03:03:29;;;;;;;;;6.00;5.00;;;;;21.03;46.34;100922.59;4974493;28;46294;-62
2022/05/22 03:08:38;;;;;;;;;6.00;6.00;;;;;21.01;46.42;100916.50;4974661;28;45426;-61
2022/05/22 03:11:04;;;;;;;;;12.00;10.67;;;;;20.98;46.32;100908.69;4974680;28;45487;-62
2022/05/22 03:13:30;;;;;;;;;6.25;4.75;;;;;20.95;46.80;100914.28;4974874;28;45892;-61
2022/05/22 03:15:55;;;;;;;;;5.25;5.25;;;;;20.92;46.98;100910.00;4989745;28;45505;-61
2022/05/22 03:18:21;;;;;;;;;4.50;4.50;;;;;20.91;46.68;100905.63;4974137;28;45653;-61
2022/05/22 03:20:46;;;;;;;;;5.25;5.25;;;;;20.92;46.98;100901.97;4974764;28;45645;-62
2022/05/22 03:23:13;;;;;;;;;4.00;4.00;;;;;20.90;46.58;100893.25;4974011;28;45468;-61
2022/05/22 03:25:39;;;;;;;;;2.00;2.00;;;;;20.89;46.79;100882.66;4974897;28;45503;-62
2022/05/22 03:28:05;;;;;;;;;4.00;4.00;;;;;20.90;46.62;100873.66;4974781;28;45511;-62
2022/05/22 03:30:31;;;;;;;;;5.50;5.00;;;;;20.88;46.81;100872.94;4974556;28;45499;-63
2022/05/22 03:32:56;;;;;;;;;1.75;1.75;;;;;20.86;46.95;100866.84;4974639;28;45418;-62
2022/05/22 03:35:22;;;;;;;;;5.00;5.00;;;;;20.85;46.58;100870.50;4974492;28;45475;-62
2022/05/22 03:37:47;;;;;;;;;5.25;3.75;;;;;20.80;46.67;100870.81;4974583;28;45593;-62
2022/05/22 03:40:13;;;;;;;;;5.50;5.00;;;;;20.74;46.67;100858.78;4974707;28;45435;-62
2022/05/22 03:42:39;;;;;;;;;3.00;3.00;;;;;20.71;46.84;100861.66;4973492;28;45497;-62
2022/05/22 03:45:05;;;;;;;;;4.00;4.00;;;;;20.69;47.12;100860.06;4974548;28;45568;-62
2022/05/22 03:47:31;;;;;;;;;6.33;5.00;;;;;20.69;47.10;100862.75;4974664;28;45476;-62
2022/05/22 03:49:56;;;;;;;;;6.00;6.00;;;;;20.65;46.89;100862.09;4973503;28;45597;-62
2022/05/22 03:52:22;;;;;;;;;7.00;5.00;;;;;20.69;46.73;100868.94;4974306;28;45729;-62
2022/05/22 03:54:47;;;;;;;;;3.00;3.00;;;;;20.68;46.74;100867.22;4972556;28;45477;-62
2022/05/22 03:57:13;;;;;;;;;5.00;5.00;;;;;20.66;46.65;100861.16;4974730;28;45558;-62
2022/05/22 03:59:39;;;;;;;;;6.67;5.33;;;;;20.64;46.57;100855.06;4972996;28;45525;-62
2022/05/22 04:02:04;;;;;;;;;5.00;5.00;;;;;20.59;46.71;100848.34;4974496;28;46296;-62
2022/05/22 04:04:30;;;;;;;;;4.00;4.00;;;;;20.62;47.18;100853.47;4989677;28;45502;-62
2022/05/22 04:06:55;;;;;;;;;5.50;5.50;;;;;20.56;47.06;100840.56;4976806;28;45457;-62
2022/05/22 04:09:20;;;;;;;;;4.25;4.25;;;;;20.57;46.71;100839.59;4977884;28;45460;-62
2022/05/22 04:11:46;;;;;;;;;5.00;3.50;;;;;20.55;46.71;100842.34;4977723;28;45570;-62
2022/05/22 04:14:11;;;;;;;;;5.00;4.00;;;;;20.54;47.10;100834.47;4978008;28;45482;-62
2022/05/22 04:16:36;;;;;;;;;6.00;4.50;;;;;20.51;46.83;100824.81;4977213;28;45786;-61
2022/05/22 04:19:02;;;;;;;;;5.50;4.50;;;;;20.48;46.72;100820.56;4977263;28;45669;-62
2022/05/22 04:21:27;;;;;;;;;5.50;4.25;;;;;20.46;47.11;100825.16;4977545;28;46144;-62
2022/05/22 04:26:36;;;;;;;;;4.00;3.75;;;;;20.48;47.05;100839.25;4977823;28;45480;-61
2022/05/22 04:29:02;;;;;;;;;5.33;4.00;;;;;20.47;46.60;100836.69;4976622;28;49937;-62
2022/05/22 04:31:27;;;;;;;;;5.00;5.00;;;;;20.46;46.66;100838.50;4977524;28;45461;-62
2022/05/22 04:33:53;;;;;;;;;5.75;4.25;;;;;20.46;46.94;100833.16;4977397;28;45482;-62
2022/05/22 04:36:18;;;;;;;;;5.67;5.00;;;;;20.45;46.68;100828.81;4977508;28;45927;-62
2022/05/22 04:38:43;;;;;;;;;5.00;5.00;;;;;20.38;46.96;100819.53;4977460;28;45464;-61
2022/05/22 04:41:09;;;;;;;;;6.00;6.00;;;;;20.47;46.63;100831.34;4976874;28;45450;-61
2022/05/22 04:43:34;;;;;;;;;3.33;3.33;;;;;20.46;46.69;100837.66;4977129;28;45543;-61
2022/05/22 04:45:59;;;;;;;;;4.00;2.67;;;;;20.43;46.89;100844.09;4977511;28;45459;-62
2022/05/22 04:48:26;;;;;;;;;5.00;5.00;;;;;20.40;46.82;100841.66;4976688;28;45591;-61
2022/05/22 04:50:53;;;;;;;;;4.25;4.25;;;;;20.44;46.74;100851.13;4976931;28;45504;-62
2022/05/22 04:53:22;;;;;;;;;4.33;4.33;;;;;20.44;46.87;100851.13;4977008;28;45483;-62
2022/05/22 04:55:47;;;;;;;;;4.67;4.00;;;;;20.43;46.88;100854.78;4977140;28;45432;-62
2022/05/22 04:58:13;;;;;;;;;4.33;4.33;;;;;20.40;46.63;100851.47;4975370;28;45617;-61
2022/05/22 05:00:40;;;;;;;;;5.00;4.00;;;;;20.38;46.85;100851.56;4976668;28;45973;-62
2022/05/22 05:03:06;;;;;;;;;6.00;4.33;;;;;20.40;46.73;100860.34;4977049;28;45484;-61
2022/05/22 05:05:32;;;;;;;;;3.00;3.00;;;;;20.39;46.35;100850.63;4977018;28;45544;-61
2022/05/22 05:07:57;;;;;;;;;6.00;4.67;;;;;20.42;46.99;100858.41;4977171;28;45488;-61
2022/05/22 05:10:23;;;;;;;;;4.00;4.00;;;;;20.44;46.81;100856.47;4976270;28;45915;-62
2022/05/22 05:12:48;;;;;;;;;3.75;3.75;;;;;20.48;46.24;100855.28;4976843;28;45555;-62
2022/05/22 05:15:16;;;;;;;;;4.00;4.00;;;;;20.51;46.65;100843.53;4975732;28;45558;-62
2022/05/22 05:17:43;;;;;;;;;3.00;3.00;;;;;20.51;46.31;100843.53;4975825;28;45557;-61
2022/05/22 05:20:11;;;;;;;;;6.25;4.25;;;;;20.51;46.51;100847.06;4976324;28;46236;-61
2022/05/22 05:22:37;;;;;;;;;4.67;4.67;;;;;20.55;46.59;100853.03;4975752;28;45462;-61
2022/05/22 05:25:03;;;;;;;;;4.33;4.00;;;;;20.54;46.30;100847.84;4976296;28;45490;-62
2022/05/22 05:27:28;;;;;;;;;3.33;3.33;;;;;20.54;46.07;100845.16;4976182;28;45504;-62
2022/05/22 05:29:54;;;;;;;;;3.25;3.25;;;;;20.60;46.11;100852.72;4976366;28;45581;-61
2022/05/22 05:32:20;;;;;;;;;4.00;4.00;;;;;20.60;46.21;100858.06;4976084;28;45524;-62
2022/05/22 05:34:46;;;;;;;;;4.00;4.00;;;;;20.61;46.17;100857.97;4976350;28;45607;-62
2022/05/22 05:37:11;;;;;;;;;3.00;3.00;;;;;20.62;46.37;100862.34;4975951;28;45609;-62
2022/05/22 05:39:36;;;;;;;;;4.00;4.00;;;;;20.62;46.13;100861.47;4974666;28;46032;-62
2022/05/22 05:42:02;;;;;;;;;3.67;3.67;;;;;20.66;45.92;100861.16;4991020;28;45545;-62
2022/05/22 05:44:28;;;;;;;;;1.00;1.00;;;;;20.68;45.86;100861.88;4975389;28;45802;-62
2022/05/22 05:46:53;;;;;;;;;4.00;4.00;;;;;20.67;45.97;100856.66;4976177;28;45477;-62
2022/05/22 05:49:18;;;;;;;;;4.00;4.00;;;;;20.70;46.10;100864.44;4975874;28;45422;-62
2022/05/22 05:51:44;;;;;;;;;4.75;3.50;;;;;20.73;45.52;100867.72;4975436;28;52448;-61
2022/05/22 05:54:09;;;;;;;;;4.00;4.00;;;;;20.72;46.13;100865.19;4991057;28;45443;-62
2022/05/22 05:56:39;;;;;;;;;2.50;2.50;;;;;20.76;45.63;100861.31;4975830;28;45547;-62
2022/05/22 05:59:06;;;;;;;;;4.00;4.00;;;;;20.79;45.55;100853.06;4974976;28;45461;-63
2022/05/22 06:01:31;;;;;;;;;2.00;2.00;;;;;20.82;45.75;100849.31;4975660;28;45419;-63
2022/05/22 06:03:57;;;;;;;;;3.50;3.25;;;;;20.81;45.65;100836.91;4975266;28;45542;-62
2022/05/22 06:06:22;;;;;;;;;3.00;3.00;;;;;20.82;45.41;100838.63;4974692;28;45559;-62
2022/05/22 06:08:48;;;;;;;;;3.00;3.00;;;;;20.78;45.08;100826.47;4975859;28;46056;-62
2022/05/22 06:11:14;;;;;;;;;4.00;4.00;;;;;20.79;45.42;100849.53;4975951;28;45703;-62
2022/05/22 06:13:42;;;;;;;;;4.00;3.00;;;;;20.78;45.03;100842.50;4975634;28;45473;-62
2022/05/22 06:16:08;;;;;;;;;2.00;2.00;;;;;20.76;44.93;100826.56;4975613;28;45544;-62
2022/05/22 06:18:34;;;;;;;;;4.25;3.00;;;;;20.74;44.96;100807.13;4975467;28;45512;-62
2022/05/22 06:21:06;;;;;;;;;2.25;2.25;;;;;20.74;45.26;100797.28;4991038;28;45537;-62
2022/05/22 06:23:32;;;;;;;;;4.25;4.25;;;;;20.76;44.88;100793.63;4975867;28;45504;-62
2022/05/22 06:25:57;;;;;;;;;3.75;3.75;;;;;20.75;45.48;100792.78;4975282;28;46630;-62
2022/05/22 06:28:22;;;;;;;;;3.00;3.00;;;;;20.74;45.26;100799.13;4975407;28;45461;-62
2022/05/22 06:30:47;;;;;;;;;3.50;3.50;;;;;20.71;45.25;100788.63;4975488;28;45529;-63
2022/05/22 06:33:17;;;;;;;;;4.00;4.00;;;;;20.74;45.26;100777.72;4975768;28;45582;-62
2022/05/22 06:35:44;;;;;;;;;2.25;2.25;;;;;20.76;45.58;100767.75;4974655;28;45553;-62
2022/05/22 06:39:49;;;;;;;;;2.25;2.25;;;;;20.76;45.52;100767.75;4974901;28;45414;-62
2022/05/22 06:40:56;;;;;;;;;4.00;4.00;;;;;20.81;45.60;100764.75;4975062;28;45491;-63
2022/05/22 06:43:22;;;;;;;;;4.00;4.00;;;;;20.80;44.94;100745.19;4975575;28;45490;-62
2022/05/22 06:45:51;;;;;;;;;4.25;4.25;;;;;20.81;45.08;100754.06;4974165;28;45573;-62
2022/05/22 06:48:17;;;;;;;;;4.00;3.25;;;;;20.81;45.45;100759.41;4974646;28;46122;-62
2022/05/22 06:50:43;;;;;;;;;4.75;3.75;;;;;20.82;45.46;100759.28;4975286;28;45449;-63
2022/05/22 06:53:08;;;;;;;;;4.00;4.00;;;;;20.87;45.18;100767.78;4975560;28;45513;-62
2022/05/22 06:55:33;;;;;;;;;4.00;4.00;;;;;20.87;45.30;100758.91;4973917;28;45640;-62
2022/05/22 06:57:59;;;;;;;;;5.00;3.50;;;;;20.89;45.44;100752.50;4974031;28;45428;-62
2022/05/22 07:00:24;;;;;;;;;4.50;4.50;;;;;20.90;45.52;100764.91;4973883;28;47137;-65
2022/05/22 07:02:52;;;;;;;;;5.25;4.00;;;;;20.94;45.70;100769.03;4974865;28;45487;-63
2022/05/22 07:05:18;;;;;;;;;4.25;3.25;;;;;21.00;45.60;100766.88;4975069;28;45703;-64
2022/05/22 07:07:44;;;;;;;;;4.75;4.75;;;;;21.08;45.57;100778.69;4974634;28;45586;-64
2022/05/22 07:10:10;;;;;;;;;3.00;2.25;;;;;21.11;45.42;100780.25;4973884;28;45515;-63
2022/05/22 07:12:35;;;;;;;;;4.25;3.25;;;;;21.22;45.17;100780.28;4975091;28;45327;-62
2022/05/22 07:15:01;;;;;;;;;3.00;3.00;;;;;21.27;45.26;100754.03;4975161;28;45567;-62
2022/05/22 07:17:26;;;;;;;;;2.00;2.00;;;;;21.29;45.32;100741.41;4974703;28;45560;-64
2022/05/22 07:19:53;;;;;;;;;2.00;2.00;;;;;21.32;45.15;100753.69;4974270;28;46096;-65
2022/05/22 07:22:19;;;;;;;;;4.00;4.00;;;;;21.35;44.88;100762.31;4973509;28;45544;-65
2022/05/22 07:24:45;;;;;;;;;2.50;2.50;;;;;21.40;44.79;100757.47;4974584;28;45472;-64
2022/05/22 07:27:10;;;;;;;;;4.00;4.00;;;;;21.39;45.21;100734.38;4974714;28;45569;-62
2022/05/22 07:29:36;;;;;;;;;3.50;3.25;;;;;21.43;45.31;100721.59;4974868;28;45592;-64
2022/05/22 07:32:04;;;;;;;;;2.00;2.00;;;;;21.43;45.18;100724.28;4986978;28;45561;-64
2022/05/22 07:34:30;;;;;;;;;5.00;4.00;;;;;21.45;45.12;100729.53;4974667;28;45569;-62
2022/05/22 07:36:59;;;;;;;;;4.00;4.00;;;;;21.46;44.67;100731.22;4974067;28;45882;-64
2022/05/22 07:39:24;;;;;;;;;3.00;3.00;;;;;21.48;44.75;100740.00;4973351;28;45458;-64
2022/05/22 07:41:50;;;;;;;;;3.75;3.00;;;;;21.48;44.41;100743.50;4974017;28;45594;-64
2022/05/22 07:44:15;;;;;;;;;3.00;3.00;;;;;21.48;44.84;100748.88;4973874;28;46118;-65
2022/05/22 07:46:41;;;;;;;;;4.00;4.00;;;;;21.55;45.00;100763.47;4973511;28;46502;-62
2022/05/22 07:49:06;;;;;;;;;4.00;4.00;;;;;21.60;44.74;100752.38;4974085;28;45561;-63
2022/05/22 07:51:32;;;;;;;;;2.25;2.25;;;;;21.65;44.49;100746.66;4973902;28;45487;-59
2022/05/22 07:53:57;;;;;;;;;3.00;2.25;;;;;21.70;44.58;100726.59;4973945;28;45450;-59
2022/05/22 07:56:23;;;;;;;;;3.50;3.50;;;;;21.73;44.42;100712.94;4972254;28;46644;-60
2022/05/22 07:58:52;;;;;;;;;3.00;3.00;;;;;21.75;44.22;100720.88;4971088;28;45570;-63
2022/05/22 08:01:18;;;;;;;;;2.75;2.75;;;;;21.75;43.97;100718.19;4973987;28;45506;-63
2022/05/22 08:03:44;;;;;;;;;5.00;3.25;;;;;21.79;44.23;100717.00;4973819;28;45446;-64
2022/05/22 08:06:10;;;;;;;;;3.00;3.00;;;;;21.80;44.19;100711.50;4973650;28;45522;-61
2022/05/22 08:08:36;;;;;;;;;2.25;2.25;;;;;21.80;43.86;100710.66;4973625;28;45580;-64
2022/05/22 08:11:01;;;;;;;;;4.00;4.00;;;;;21.81;44.03;100707.81;4972192;28;45506;-62
2022/05/22 08:13:27;;;;;;;;;5.00;4.00;;;;;21.85;43.84;100703.09;4973658;28;45572;-61
2022/05/22 08:15:52;;;;;;;;;3.50;2.00;;;;;21.86;44.26;100696.75;4973540;28;46254;-67
2022/05/22 08:18:18;;;;;;;;;4.25;4.00;;;;;21.88;43.87;100686.78;4973417;28;45488;-66
2022/05/22 08:20:44;;;;;;;;;3.00;3.00;;;;;21.90;43.76;100676.81;4973123;28;45525;-62
2022/05/22 08:23:16;;;;;;;;;1.75;1.75;;;;;21.94;43.79;100666.69;4959335;28;45645;-61
2022/05/22 08:25:42;;;;;;;;;3.00;2.00;;;;;21.99;43.71;100659.13;4970441;28;46324;-62
2022/05/22 08:28:07;;;;;;;;;4.00;2.75;;;;;22.01;43.63;100636.59;4971193;28;45599;-61
2022/05/22 08:30:33;;;;;;;;;1.75;1.75;;;;;22.06;43.60;100644.25;4973672;28;45469;-62
2022/05/22 08:33:00;;;;;;;;;2.25;2.25;;;;;22.12;43.42;100649.09;4973779;28;45535;-63
2022/05/22 08:35:31;;;;;;;;;4.00;4.00;;;;;22.18;43.71;100658.44;4973392;28;46387;-62
2022/05/22 08:37:58;;;;;;;;;3.75;3.75;;;;;22.23;43.52;100667.81;4973239;28;45525;-63
2022/05/22 08:40:24;;;;;;;;;4.25;3.75;;;;;22.32;43.51;100673.41;4973300;28;45445;-61
2022/05/22 08:42:59;;;;;;;;;3.00;3.00;;;;;22.38;43.27;100670.19;4973288;28;45528;-62
2022/05/22 08:45:33;;;;;;;;;4.75;3.00;;;;;22.43;43.23;100662.63;4973136;28;46518;-61
2022/05/22 08:48:35;;;;;;;;;3.00;3.00;;;;;22.46;42.89;100665.91;4973179;28;45421;-61
2022/05/22 08:51:03;;;;;;;;;2.50;2.50;;;;;22.49;42.33;100662.13;4973289;28;45486;-61
2022/05/22 08:53:37;;;;;;;;;3.75;3.00;;;;;22.50;42.79;100666.50;4976678;28;45442;-61
2022/05/22 08:59:07;;;;;;;;;4.00;3.00;;;;;22.55;42.27;100674.16;4976472;28;45501;-61
2022/05/22 09:01:36;;;;;;;;;3.00;3.00;;;;;22.57;42.22;100672.19;4974747;28;45518;-61
2022/05/22 09:04:17;;;;;;;;;3.00;3.00;;;;;22.59;42.28;100664.84;4976322;28;45573;-61
2022/05/22 09:06:50;;;;;;;;;3.00;1.75;;;;;22.62;42.15;100662.78;4975597;28;46019;-61
2022/05/22 09:09:16;;;;;;;;;3.50;3.00;;;;;22.67;42.21;100655.19;4975631;28;45575;-62
2022/05/22 09:12:08;;;;;;;;;3.00;3.00;;;;;22.72;42.21;100647.59;4976101;28;45426;-61
2022/05/22 09:15:14;;;;;;;;;2.75;2.75;;;;;22.78;42.22;100648.91;4972478;28;46622;-61
2022/05/22 09:18:00;;;;;;;;;2.00;2.00;;;;;22.84;42.59;100644.88;4973448;28;46176;-62
2022/05/22 09:20:42;;;;;;;;;5.00;4.00;;;;;22.89;42.32;100653.34;4976616;28;45410;-62
2022/05/22 09:23:45;;;;;;;;;4.00;3.00;;;;;22.90;42.33;100642.47;4976685;28;45470;-63
2022/05/22 09:26:28;;;;;;;;;4.00;3.50;;;;;22.92;42.40;100642.38;4950972;28;45572;-62
2022/05/22 09:29:19;;;;;;;;;3.00;3.00;;;;;22.95;42.81;100631.38;4976784;28;46224;-61
2022/05/22 09:32:12;;;;;;;;;3.75;3.75;;;;;23.00;42.57;100621.13;4972813;28;45513;-70
2022/05/22 09:35:03;;;;;;;;;4.00;4.00;;;;;23.04;42.52;100619.00;4970304;28;45558;-68
2022/05/22 09:37:53;;;;;;;;;3.75;3.75;;;;;23.06;41.88;100619.72;4975005;28;45527;-67
2022/05/22 09:40:43;;;;;;;;;38.67;34.33;;;;;23.06;41.88;100614.38;4960082;28;45398;-69
2022/05/22 09:43:50;;;;;;;;;27.33;27.00;;;;;23.05;41.72;100608.16;4956834;28;45654;-69
2022/05/22 09:46:18;;;;;;;;;6.00;6.00;;;;;23.04;41.69;100598.41;4948370;28;45501;-69
2022/05/22 09:48:51;;;;;;;;;6.25;6.25;;;;;22.99;41.32;100589.91;4969506;28;45516;-68
2022/05/22 09:51:38;;;;;;;;;5.50;5.50;;;;;22.98;41.06;100592.72;4974898;28;45994;-70
2022/05/22 09:54:19;;;;;;;;;5.00;5.00;;;;;22.96;40.74;100578.56;4975056;28;45452;-68
2022/05/22 09:57:05;;;;;;;;;3.75;3.75;;;;;22.94;40.91;100581.38;4975469;28;45553;-72
2022/05/22 10:00:00;;;;;;;;;3.00;3.00;;;;;22.92;41.15;100575.31;4974384;28;45513;-73
2022/05/22 10:02:53;;;;;;;;;7.75;7.75;;;;;22.93;40.64;100568.97;4967389;28;46672;-64
2022/05/22 10:05:44;;;;;;;;;5.00;5.00;;;;;22.93;40.54;100547.50;4956245;28;45544;-64
2022/05/22 10:08:28;;;;;;;;;4.00;4.00;;;;;22.95;40.57;100534.81;4975699;28;45541;-65
2022/05/22 10:11:14;;;;;;;;;2.75;2.75;;;;;22.93;40.77;100532.25;4975495;28;45604;-64
2022/05/22 10:13:54;;;;;;;;;6.00;5.00;;;;;22.94;40.96;100531.28;4974797;28;45482;-64
2022/05/22 10:16:36;;;;;;;;;5.00;3.00;;;;;22.96;40.72;100539.22;4975271;28;45537;-60
2022/05/22 10:19:20;;;;;;;;;2.00;2.00;;;;;22.99;40.31;100538.94;4974646;28;45505;-60
2022/05/22 10:21:59;;;;;;;;;2.50;2.00;;;;;23.01;40.17;100538.81;4966546;28;45445;-60
2022/05/22 10:24:44;;;;;;;;;3.25;3.25;;;;;23.04;39.85;100541.22;4974140;28;45504;-66
2022/05/22 10:27:16;;;;;;;;;2.00;2.00;;;;;23.04;40.59;100525.97;4974530;28;45627;-65
2022/05/22 10:29:51;;;;;;;;;3.75;3.75;;;;;23.03;40.60;100516.22;4975197;28;45536;-64
2022/05/22 10:32:39;;;;;;;;;4.00;3.00;;;;;23.00;40.85;100512.94;4966750;28;45471;-64
2022/05/22 10:35:29;;;;;;;;;4.25;4.25;;;;;22.94;40.73;100491.06;4961906;28;45705;-62
2022/05/22 10:38:21;;;;;;;;;4.00;4.00;;;;;22.90;40.91;100478.03;4973027;28;45395;-63
2022/05/22 10:43:37;;;;;;;;;2.00;2.00;;;;;22.82;41.12;100472.50;4974981;28;45520;-62
2022/05/22 10:46:02;;;;;;;;;2.50;2.50;;;;;22.69;41.27;100452.13;4972201;28;46165;-61
2022/05/22 10:48:31;;;;;;;;;4.25;4.25;;;;;22.79;41.57;100460.22;4974541;28;45575;-67
2022/05/22 10:51:10;;;;;;;;;2.50;2.50;;;;;22.79;41.72;100462.06;4974870;28;45596;-68
2022/05/22 10:53:40;;;;;;;;;5.50;5.50;;;;;22.76;41.98;100448.94;4974654;28;45436;-68
2022/05/22 10:56:14;;;;;;;;;3.00;3.00;;;;;22.69;42.33;100445.94;4973744;28;45520;-66
2022/05/22 10:58:51;;;;;;;;;4.25;4.25;;;;;22.66;42.70;100438.16;4974277;28;45461;-63
2022/05/22 11:01:19;;;;;;;;;3.75;3.75;;;;;22.64;43.08;100432.94;4973661;28;45526;-65
2022/05/22 11:03:45;;;;;;;;;3.50;3.50;;;;;22.61;43.45;100433.22;4974331;28;45672;-67
2022/05/22 11:06:22;;;;;;;;;7.75;5.75;;;;;22.64;43.21;100442.81;4973700;28;45394;-66
2022/05/22 11:08:53;;;;;;;;;5.00;5.00;;;;;22.64;43.70;100448.16;4974497;28;45521;-67
2022/05/22 11:11:34;;;;;;;;;5.50;5.00;;;;;22.66;43.69;100446.22;4974368;28;45577;-69
2022/05/22 11:14:08;;;;;;;;;4.00;4.00;;;;;22.64;44.44;100466.94;4973227;28;45536;-70
2022/05/22 11:16:33;;;;;;;;;4.00;4.00;;;;;22.62;45.29;100471.56;4975092;28;45505;-69
2022/05/22 11:19:11;;;;;;;;;44.67;38.67;;;;;22.58;45.13;100471.00;4973930;28;45405;-67
2022/05/22 11:21:47;;;;;;;;;35.67;32.33;;;;;22.58;45.56;100467.50;4974592;28;45510;-66
2022/05/22 11:24:40;;;;;;;;;64.50;52.50;;;;;22.61;46.08;100472.56;4974750;28;45527;-70
2022/05/22 11:27:33;;;;;;;;;51.67;44.00;;;;;22.65;46.09;100469.50;4973822;28;45555;-67
2022/05/22 11:30:07;;;;;;;;;51.33;43.67;;;;;22.64;46.31;100456.22;4973571;28;45417;-67
2022/05/22 11:32:35;;;;;;;;;27.00;26.67;;;;;22.64;46.27;100454.38;4973012;28;45378;-71
2022/05/22 11:35:31;;;;;;;;;41.33;36.33;;;;;22.65;46.47;100452.56;4969470;28;45583;-69
2022/05/22 11:38:11;;;;;;;;;70.00;57.50;;;;;22.71;47.01;100454.69;4967606;28;46359;-68
2022/05/22 11:40:46;;;;;;;;;108.75;104.75;;;;;22.75;46.99;100468.66;4984572;28;45545;-68
2022/05/22 11:43:33;;;;;;;;;89.25;86.25;;;;;22.79;46.65;100462.06;4973849;28;45513;-67
2022/05/22 11:46:15;;;;;;;;;377.75;364.50;;;;;22.82;46.95;100446.53;4970416;28;45533;-68
2022/05/22 11:49:04;;;;;;;;;81.00;75.50;;;;;22.87;46.37;100441.63;4968038;28;45481;-72
2022/05/22 11:52:00;;;;;;;;;45.67;38.67;;;;;22.89;45.55;100445.03;4973975;28;45568;-69
2022/05/22 11:54:32;;;;;;;;;27.33;26.33;;;;;22.91;45.10;100439.50;4961716;28;45556;-68